sensor_id;sensor_type;location;lat;lon;timestamp;pressure;altitude;pressure_sealevel;temperature;humidity
36380;BME280;22411;53.016;18.632;2023-07-24T00:01:57;99780.41;;;19.30;100.00
36380;BME280;22411;53.016;18.632;2023-07-24T00:04:22;99782.03;;;19.31;100.00
36380;BME280;22411;53.016;18.632;2023-07-24T00:06:48;99779.41;;;19.31;100.00
36380;BME280;22411;53.016;18.632;2023-07-24T00:09:15;99780.28;;;19.24;100.00
36380;BME280;22411;53.016;18.632;2023-07-24T00:11:41;99779.53;;;19.15;100.00
36380;BME280;22411;53.016;18.632;2023-07-24T00:14:07;99786.44;;;19.16;100.00
36380;BME280;22411;53.016;18.632;2023-07-24T00:16:33;99783.84;;;19.08;100.00
36380;BME280;22411;53.016;18.632;2023-07-24T00:18:58;99778.50;;;19.01;100.00
36380;BME280;22411;53.016;18.632;2023-07-24T00:21:24;99780.66;;;18.98;100.00
36380;BME280;22411;53.016;18.632;2023-07-24T00:23:49;99783.66;;;18.95;100.00
36380;BME280;22411;53.016;18.632;2023-07-24T00:26:15;99783.53;;;18.88;100.00
36380;BME280;22411;53.016;18.632;2023-07-24T00:28:41;99781.06;;;18.87;100.00
36380;BME280;22411;53.016;18.632;2023-07-24T00:31:07;99784.22;;;18.82;100.00
36380;BME280;22411;53.016;18.632;2023-07-24T00:33:32;99786.56;;;18.77;100.00
36380;BME280;22411;53.016;18.632;2023-07-24T00:35:59;99787.75;;;18.74;100.00
36380;BME280;22411;53.016;18.632;2023-07-24T00:38:25;99792.69;;;18.69;100.00
36380;BME280;22411;53.016;18.632;2023-07-24T00:40:51;99793.53;;;18.62;100.00
36380;BME280;22411;53.016;18.632;2023-07-24T00:43:16;99791.13;;;18.52;100.00
36380;BME280;22411;53.016;18.632;2023-07-24T00:45:44;99790.84;;;18.47;100.00
36380;BME280;22411;53.016;18.632;2023-07-24T00:48:10;99790.34;;;18.43;100.00
36380;BME280;22411;53.016;18.632;2023-07-24T00:50:37;99795.44;;;18.45;100.00
36380;BME280;22411;53.016;18.632;2023-07-24T00:53:03;99785.50;;;18.32;100.00
36380;BME280;22411;53.016;18.632;2023-07-24T00:55:30;99784.03;;;18.29;100.00
36380;BME280;22411;53.016;18.632;2023-07-24T00:57:57;99789.81;;;18.25;100.00
36380;BME280;22411;53.016;18.632;2023-07-24T01:00:24;99797.81;;;18.32;100.00
36380;BME280;22411;53.016;18.632;2023-07-24T01:02:49;99782.06;;;18.32;100.00
36380;BME280;22411;53.016;18.632;2023-07-24T01:05:16;99788.81;;;18.26;100.00
36380;BME280;22411;53.016;18.632;2023-07-24T01:07:42;99790.63;;;18.25;100.00
36380;BME280;22411;53.016;18.632;2023-07-24T01:10:08;99788.00;;;18.25;100.00
36380;BME280;22411;53.016;18.632;2023-07-24T01:15:12;99791.13;;;18.21;100.00
36380;BME280;22411;53.016;18.632;2023-07-24T01:17:46;99799.00;;;18.21;100.00
36380;BME280;22411;53.016;18.632;2023-07-24T01:20:15;99799.00;;;18.21;100.00
36380;BME280;22411;53.016;18.632;2023-07-24T01:22:57;99800.50;;;18.15;100.00
36380;BME280;22411;53.016;18.632;2023-07-24T01:25:35;99797.53;;;18.18;100.00
36380;BME280;22411;53.016;18.632;2023-07-24T01:28:01;99791.00;;;18.14;100.00
36380;BME280;22411;53.016;18.632;2023-07-24T01:30:27;99791.34;;;18.11;100.00
36380;BME280;22411;53.016;18.632;2023-07-24T01:32:53;99788.41;;;18.06;100.00
36380;BME280;22411;53.016;18.632;2023-07-24T01:35:19;99793.66;;;18.06;100.00
36380;BME280;22411;53.016;18.632;2023-07-24T01:37:46;99787.97;;;17.94;100.00
36380;BME280;22411;53.016;18.632;2023-07-24T01:40:12;99786.34;;;17.93;100.00
36380;BME280;22411;53.016;18.632;2023-07-24T01:42:39;99787.66;;;17.89;100.00
36380;BME280;22411;53.016;18.632;2023-07-24T01:45:05;99781.28;;;17.84;100.00
36380;BME280;22411;53.016;18.632;2023-07-24T01:47:32;99787.16;;;17.86;100.00
36380;BME280;22411;53.016;18.632;2023-07-24T01:49:57;99779.34;;;17.77;100.00
36380;BME280;22411;53.016;18.632;2023-07-24T01:52:23;99775.72;;;17.70;100.00
36380;BME280;22411;53.016;18.632;2023-07-24T01:54:49;99770.53;;;17.62;100.00
36380;BME280;22411;53.016;18.632;2023-07-24T01:57:15;99780.34;;;17.60;100.00
36380;BME280;22411;53.016;18.632;2023-07-24T01:59:41;99782.81;;;17.62;100.00
36380;BME280;22411;53.016;18.632;2023-07-24T02:02:06;99781.81;;;17.55;100.00
36380;BME280;22411;53.016;18.632;2023-07-24T02:04:32;99768.09;;;17.44;100.00
36380;BME280;22411;53.016;18.632;2023-07-24T02:06:58;99769.56;;;17.39;100.00
36380;BME280;22411;53.016;18.632;2023-07-24T02:09:24;99764.50;;;17.29;100.00
36380;BME280;22411;53.016;18.632;2023-07-24T02:11:49;99763.38;;;17.23;100.00
36380;BME280;22411;53.016;18.632;2023-07-24T02:14:17;99769.94;;;17.19;100.00
36380;BME280;22411;53.016;18.632;2023-07-24T02:16:42;99757.97;;;17.17;100.00
36380;BME280;22411;53.016;18.632;2023-07-24T02:19:08;99760.78;;;17.15;100.00
36380;BME280;22411;53.016;18.632;2023-07-24T02:21:34;99764.69;;;17.11;100.00
36380;BME280;22411;53.016;18.632;2023-07-24T02:24:00;99771.75;;;17.11;100.00
36380;BME280;22411;53.016;18.632;2023-07-24T02:26:28;99769.97;;;17.03;100.00
36380;BME280;22411;53.016;18.632;2023-07-24T02:28:53;99776.81;;;17.04;100.00
36380;BME280;22411;53.016;18.632;2023-07-24T02:31:19;99784.66;;;17.12;100.00
36380;BME280;22411;53.016;18.632;2023-07-24T02:33:45;99790.38;;;17.08;100.00
36380;BME280;22411;53.016;18.632;2023-07-24T02:36:11;99786.31;;;17.05;100.00
36380;BME280;22411;53.016;18.632;2023-07-24T02:38:37;99785.16;;;17.08;100.00
36380;BME280;22411;53.016;18.632;2023-07-24T02:41:02;99776.81;;;17.04;100.00
36380;BME280;22411;53.016;18.632;2023-07-24T02:43:28;99777.81;;;17.03;100.00
36380;BME280;22411;53.016;18.632;2023-07-24T02:45:54;99770.94;;;16.94;100.00
36380;BME280;22411;53.016;18.632;2023-07-24T02:48:19;99775.81;;;16.97;100.00
36380;BME280;22411;53.016;18.632;2023-07-24T02:50:47;99765.69;;;16.94;100.00
36380;BME280;22411;53.016;18.632;2023-07-24T02:53:13;99763.91;;;16.94;100.00
36380;BME280;22411;53.016;18.632;2023-07-24T02:55:42;99778.09;;;16.92;100.00
36380;BME280;22411;53.016;18.632;2023-07-24T02:58:09;99778.78;;;16.94;100.00
36380;BME280;22411;53.016;18.632;2023-07-24T03:00:34;99771.75;;;16.94;100.00
36380;BME280;22411;53.016;18.632;2023-07-24T03:03:00;99776.66;;;16.89;100.00
36380;BME280;22411;53.016;18.632;2023-07-24T03:05:26;99777.94;;;16.85;100.00
36380;BME280;22411;53.016;18.632;2023-07-24T03:07:51;99771.25;;;16.83;100.00
36380;BME280;22411;53.016;18.632;2023-07-24T03:10:17;99769.13;;;16.78;100.00
36380;BME280;22411;53.016;18.632;2023-07-24T03:12:43;99766.00;;;16.75;100.00
36380;BME280;22411;53.016;18.632;2023-07-24T03:15:08;99765.19;;;16.74;100.00
36380;BME280;22411;53.016;18.632;2023-07-24T03:17:34;99770.06;;;16.69;100.00
36380;BME280;22411;53.016;18.632;2023-07-24T03:20:13;99767.44;;;16.69;100.00
36380;BME280;22411;53.016;18.632;2023-07-24T03:22:40;99773.22;;;16.72;100.00
36380;BME280;22411;53.016;18.632;2023-07-24T03:25:06;99783.34;;;16.76;100.00
36380;BME280;22411;53.016;18.632;2023-07-24T03:27:32;99771.56;;;16.71;100.00
36380;BME280;22411;53.016;18.632;2023-07-24T03:29:57;99777.91;;;16.69;100.00
36380;BME280;22411;53.016;18.632;2023-07-24T03:32:23;99778.06;;;16.67;100.00
36380;BME280;22411;53.016;18.632;2023-07-24T03:34:49;99772.03;;;16.67;100.00
36380;BME280;22411;53.016;18.632;2023-07-24T03:37:15;99778.06;;;16.67;100.00
36380;BME280;22411;53.016;18.632;2023-07-24T03:39:40;99777.91;;;16.69;100.00
36380;BME280;22411;53.016;18.632;2023-07-24T03:42:09;99777.09;;;16.68;100.00
36380;BME280;22411;53.016;18.632;2023-07-24T03:44:34;99770.06;;;16.69;100.00
36380;BME280;22411;53.016;18.632;2023-07-24T03:47:00;99773.66;;;16.68;100.00
36380;BME280;22411;53.016;18.632;2023-07-24T03:49:26;99779.53;;;16.70;100.00
36380;BME280;22411;53.016;18.632;2023-07-24T03:51:51;99773.84;;;16.66;100.00
36380;BME280;22411;53.016;18.632;2023-07-24T03:54:17;99777.91;;;16.69;100.00
36380;BME280;22411;53.016;18.632;2023-07-24T03:56:43;99779.06;;;16.66;100.00
36380;BME280;22411;53.016;18.632;2023-07-24T03:59:08;99771.34;;;16.65;100.00
36380;BME280;22411;53.016;18.632;2023-07-24T04:01:34;99763.72;;;16.71;100.00
36380;BME280;22411;53.016;18.632;2023-07-24T04:04:00;99769.06;;;16.70;100.00
36380;BME280;22411;53.016;18.632;2023-07-24T04:06:25;99769.44;;;16.75;100.00
36380;BME280;22411;53.016;18.632;2023-07-24T04:08:51;99770.59;;;16.81;100.00
36380;BME280;22411;53.016;18.632;2023-07-24T04:11:16;99766.50;;;16.86;100.00
36380;BME280;22411;53.016;18.632;2023-07-24T04:13:42;99771.41;;;16.89;100.00
36380;BME280;22411;53.016;18.632;2023-07-24T04:16:08;99769.94;;;16.95;100.00
36380;BME280;22411;53.016;18.632;2023-07-24T04:18:33;99768.66;;;16.99;100.00
36380;BME280;22411;53.016;18.632;2023-07-24T04:20:59;99768.97;;;17.04;100.00
36380;BME280;22411;53.016;18.632;2023-07-24T04:23:25;99765.69;;;17.02;100.00
36380;BME280;22411;53.016;18.632;2023-07-24T04:25:50;99772.72;;;17.02;100.00
36380;BME280;22411;53.016;18.632;2023-07-24T04:28:16;99767.97;;;17.05;100.00
36380;BME280;22411;53.016;18.632;2023-07-24T04:30:42;99770.59;;;17.05;100.00
36380;BME280;22411;53.016;18.632;2023-07-24T04:33:07;99774.69;;;17.08;100.00
36380;BME280;22411;53.016;18.632;2023-07-24T04:35:33;99775.19;;;17.11;100.00
36380;BME280;22411;53.016;18.632;2023-07-24T04:37:59;99763.56;;;17.14;100.00
36380;BME280;22411;53.016;18.632;2023-07-24T04:40:24;99767.16;;;17.13;100.00
36380;BME280;22411;53.016;18.632;2023-07-24T04:42:50;99765.66;;;17.18;100.00
36380;BME280;22411;53.016;18.632;2023-07-24T04:45:16;99764.34;;;17.22;100.00
36380;BME280;22411;53.016;18.632;2023-07-24T04:47:42;99768.13;;;17.28;100.00
36380;BME280;22411;53.016;18.632;2023-07-24T04:50:07;99768.75;;;17.38;100.00
36380;BME280;22411;53.016;18.632;2023-07-24T04:52:33;99769.88;;;17.44;100.00
36380;BME280;22411;53.016;18.632;2023-07-24T04:54:59;99771.84;;;17.50;100.00
36380;BME280;22411;53.016;18.632;2023-07-24T04:57:24;99770.84;;;17.59;100.00
36380;BME280;22411;53.016;18.632;2023-07-24T04:59:50;99781.31;;;17.59;100.00
36380;BME280;22411;53.016;18.632;2023-07-24T05:02:16;99779.69;;;17.58;100.00
36380;BME280;22411;53.016;18.632;2023-07-24T05:04:41;99784.91;;;17.66;100.00
36380;BME280;22411;53.016;18.632;2023-07-24T05:07:07;99784.75;;;17.68;100.00
36380;BME280;22411;53.016;18.632;2023-07-24T05:09:32;99795.22;;;17.68;100.00
36380;BME280;22411;53.016;18.632;2023-07-24T05:11:58;99778.06;;;17.73;100.00
36380;BME280;22411;53.016;18.632;2023-07-24T05:14:24;99789.03;;;17.77;100.00
36380;BME280;22411;53.016;18.632;2023-07-24T05:16:50;99788.47;;;17.90;100.00
36380;BME280;22411;53.016;18.632;2023-07-24T05:19:15;99797.47;;;17.95;100.00
36380;BME280;22411;53.016;18.632;2023-07-24T05:21:41;99807.44;;;18.00;100.00
36380;BME280;22411;53.016;18.632;2023-07-24T05:24:06;99799.09;;;17.96;100.00
36380;BME280;22411;53.016;18.632;2023-07-24T05:26:32;99800.91;;;17.96;100.00
36380;BME280;22411;53.016;18.632;2023-07-24T05:28:57;99793.22;;;17.94;100.00
36380;BME280;22411;53.016;18.632;2023-07-24T05:31:23;99790.59;;;17.94;100.00
36380;BME280;22411;53.016;18.632;2023-07-24T05:33:49;99792.72;;;17.91;100.00
36380;BME280;22411;53.016;18.632;2023-07-24T05:36:15;99794.72;;;17.89;100.00
36380;BME280;22411;53.016;18.632;2023-07-24T05:38:40;99802.75;;;17.79;100.00
36380;BME280;22411;53.016;18.632;2023-07-24T05:41:06;99803.91;;;17.76;100.00
36380;BME280;22411;53.016;18.632;2023-07-24T05:43:32;99815.56;;;17.74;100.00
36380;BME280;22411;53.016;18.632;2023-07-24T05:45:58;99816.50;;;17.65;100.00
36380;BME280;22411;53.016;18.632;2023-07-24T05:48:24;99812.63;;;17.52;100.00
36380;BME280;22411;53.016;18.632;2023-07-24T05:50:50;99820.66;;;17.43;100.00
36380;BME280;22411;53.016;18.632;2023-07-24T05:53:17;99810.84;;;17.37;100.00
36380;BME280;22411;53.016;18.632;2023-07-24T05:55:43;99813.94;;;17.24;100.00
36380;BME280;22411;53.016;18.632;2023-07-24T05:58:09;99802.66;;;17.07;100.00
36380;BME280;22411;53.016;18.632;2023-07-24T06:00:35;99798.56;;;16.96;100.00
36380;BME280;22411;53.016;18.632;2023-07-24T06:03:05;99795.78;;;16.90;100.00
36380;BME280;22411;53.016;18.632;2023-07-24T06:05:30;99794.00;;;16.90;100.00
36380;BME280;22411;53.016;18.632;2023-07-24T06:07:56;99788.75;;;16.90;100.00
36380;BME280;22411;53.016;18.632;2023-07-24T06:10:22;99788.09;;;16.96;100.00
36380;BME280;22411;53.016;18.632;2023-07-24T06:12:47;99796.78;;;17.05;100.00
36380;BME280;22411;53.016;18.632;2023-07-24T06:15:13;99791.19;;;17.08;100.00
36380;BME280;22411;53.016;18.632;2023-07-24T06:17:39;99795.94;;;17.13;100.00
36380;BME280;22411;53.016;18.632;2023-07-24T06:20:06;99796.94;;;17.12;100.00
36380;BME280;22411;53.016;18.632;2023-07-24T06:22:32;99801.66;;;17.08;100.00
36380;BME280;22411;53.016;18.632;2023-07-24T06:24:57;99808.06;;;17.06;100.00
36380;BME280;22411;53.016;18.632;2023-07-24T06:27:29;99798.59;;;17.05;100.00
36380;BME280;22411;53.016;18.632;2023-07-24T06:29:57;99799.22;;;17.07;100.00
36380;BME280;22411;53.016;18.632;2023-07-24T06:32:23;99798.56;;;17.13;100.00
36380;BME280;22411;53.016;18.632;2023-07-24T06:34:49;99803.63;;;17.22;100.00
36380;BME280;22411;53.016;18.632;2023-07-24T06:37:14;99811.50;;;17.22;100.00
36380;BME280;22411;53.016;18.632;2023-07-24T06:39:40;99802.00;;;17.21;100.00
36380;BME280;22411;53.016;18.632;2023-07-24T06:42:06;99802.34;;;17.27;100.00
36380;BME280;22411;53.016;18.632;2023-07-24T06:44:31;99807.72;;;17.33;100.00
36380;BME280;22411;53.016;18.632;2023-07-24T06:46:57;99813.78;;;17.42;100.00
36380;BME280;22411;53.016;18.632;2023-07-24T06:49:23;99804.09;;;17.50;100.00
36380;BME280;22411;53.016;18.632;2023-07-24T06:51:48;99803.75;;;17.62;100.00
36380;BME280;22411;53.016;18.632;2023-07-24T06:54:14;99801.78;;;17.64;100.00
36380;BME280;22411;53.016;18.632;2023-07-24T06:56:39;99789.19;;;17.59;100.00
36380;BME280;22411;53.016;18.632;2023-07-24T06:59:05;99792.16;;;17.72;100.00
36380;BME280;22411;53.016;18.632;2023-07-24T07:01:31;99782.06;;;17.92;100.00
36380;BME280;22411;53.016;18.632;2023-07-24T07:03:56;99779.47;;;18.23;100.00
36380;BME280;22411;53.016;18.632;2023-07-24T07:06:22;99766.03;;;18.49;100.00
36380;BME280;22411;53.016;18.632;2023-07-24T07:08:48;99768.56;;;18.66;100.00
36380;BME280;22411;53.016;18.632;2023-07-24T07:11:13;99763.13;;;18.75;100.00
36380;BME280;22411;53.016;18.632;2023-07-24T07:13:39;99761.44;;;18.83;100.00
36380;BME280;22411;53.016;18.632;2023-07-24T07:16:05;99766.28;;;18.94;100.00
36380;BME280;22411;53.016;18.632;2023-07-24T07:18:30;99757.69;;;19.00;100.00
36380;BME280;22411;53.016;18.632;2023-07-24T07:20:56;99758.88;;;19.12;100.00
36380;BME280;22411;53.016;18.632;2023-07-24T07:23:22;99761.53;;;19.27;100.00
36380;BME280;22411;53.016;18.632;2023-07-24T07:25:47;99765.78;;;19.28;100.00
36380;BME280;22411;53.016;18.632;2023-07-24T07:28:15;99761.34;;;19.28;100.00
36380;BME280;22411;53.016;18.632;2023-07-24T07:30:42;99752.03;;;19.26;100.00
36380;BME280;22411;53.016;18.632;2023-07-24T07:33:08;99748.59;;;19.25;100.00
36380;BME280;22411;53.016;18.632;2023-07-24T07:35:35;99746.59;;;19.27;100.00
36380;BME280;22411;53.016;18.632;2023-07-24T07:38:02;99737.97;;;19.33;100.00
36380;BME280;22411;53.016;18.632;2023-07-24T07:40:28;99721.88;;;19.37;100.00
36380;BME280;22411;53.016;18.632;2023-07-24T07:42:54;99724.59;;;19.58;100.00
36380;BME280;22411;53.016;18.632;2023-07-24T07:45:21;99733.75;;;19.77;100.00
36380;BME280;22411;53.016;18.632;2023-07-24T07:47:47;99726.59;;;19.85;100.00
36380;BME280;22411;53.016;18.632;2023-07-24T07:50:12;99732.03;;;19.84;100.00
36380;BME280;22411;53.016;18.632;2023-07-24T07:52:38;99735.47;;;19.84;100.00
36380;BME280;22411;53.016;18.632;2023-07-24T07:55:05;99742.63;;;19.91;100.00
36380;BME280;22411;53.016;18.632;2023-07-24T07:57:35;99736.22;;;19.93;100.00
36380;BME280;22411;53.016;18.632;2023-07-24T08:00:02;99730.22;;;19.84;100.00
36380;BME280;22411;53.016;18.632;2023-07-24T08:02:28;99730.56;;;19.81;100.00
36380;BME280;22411;53.016;18.632;2023-07-24T08:04:53;99724.84;;;19.93;100.00
36380;BME280;22411;53.016;18.632;2023-07-24T08:07:19;99713.50;;;20.07;100.00
36380;BME280;22411;53.016;18.632;2023-07-24T08:09:45;99711.88;;;20.27;100.00
36380;BME280;22411;53.016;18.632;2023-07-24T08:12:11;99715.38;;;20.49;100.00
36380;BME280;22411;53.016;18.632;2023-07-24T08:14:37;99712.56;;;20.72;100.00
36380;BME280;22411;53.016;18.632;2023-07-24T08:17:03;99705.31;;;21.09;100.00
36380;BME280;22411;53.016;18.632;2023-07-24T08:19:28;99708.00;;;21.44;100.00
36380;BME280;22411;53.016;18.632;2023-07-24T08:21:55;99708.16;;;21.70;100.00
36380;BME280;22411;53.016;18.632;2023-07-24T08:24:20;99712.69;;;21.89;100.00
36380;BME280;22411;53.016;18.632;2023-07-24T08:26:46;99709.28;;;21.96;100.00
36380;BME280;22411;53.016;18.632;2023-07-24T08:29:12;99705.81;;;21.88;100.00
36380;BME280;22411;53.016;18.632;2023-07-24T08:31:38;99710.84;;;21.83;100.00
36380;BME280;22411;53.016;18.632;2023-07-24T08:34:03;99703.56;;;21.92;100.00
36380;BME280;22411;53.016;18.632;2023-07-24T08:36:29;99704.91;;;22.23;100.00
36380;BME280;22411;53.016;18.632;2023-07-24T08:38:55;99698.00;;;22.35;100.00
36380;BME280;22411;53.016;18.632;2023-07-24T08:41:21;99690.13;;;22.61;100.00
36380;BME280;22411;53.016;18.632;2023-07-24T08:43:46;99694.19;;;22.70;100.00
36380;BME280;22411;53.016;18.632;2023-07-24T08:46:12;99687.91;;;22.85;100.00
36380;BME280;22411;53.016;18.632;2023-07-24T08:48:40;99689.53;;;23.12;100.00
36380;BME280;22411;53.016;18.632;2023-07-24T08:51:14;99688.44;;;23.46;100.00
36380;BME280;22411;53.016;18.632;2023-07-24T08:53:43;99686.69;;;23.85;100.00
36380;BME280;22411;53.016;18.632;2023-07-24T08:56:11;99671.16;;;23.95;100.00
36380;BME280;22411;53.016;18.632;2023-07-24T08:58:40;99674.69;;;24.14;100.00
36380;BME280;22411;53.016;18.632;2023-07-24T09:01:08;99673.00;;;24.26;100.00
36380;BME280;22411;53.016;18.632;2023-07-24T09:03:34;99675.22;;;24.30;100.00
36380;BME280;22411;53.016;18.632;2023-07-24T09:06:00;99672.25;;;24.51;100.00
36380;BME280;22411;53.016;18.632;2023-07-24T09:08:43;99671.38;;;24.82;100.00
36380;BME280;22411;53.016;18.632;2023-07-24T09:11:10;99664.28;;;25.01;100.00
36380;BME280;22411;53.016;18.632;2023-07-24T09:13:37;99665.56;;;25.17;100.00
36380;BME280;22411;53.016;18.632;2023-07-24T09:16:04;99665.03;;;25.08;100.00
36380;BME280;22411;53.016;18.632;2023-07-24T09:18:43;99653.50;;;25.21;100.00
36380;BME280;22411;53.016;18.632;2023-07-24T09:21:09;99657.09;;;25.45;100.00
36380;BME280;22411;53.016;18.632;2023-07-24T09:23:37;99656.81;;;25.53;100.00
36380;BME280;22411;53.016;18.632;2023-07-24T09:26:07;99650.13;;;25.32;100.00
36380;BME280;22411;53.016;18.632;2023-07-24T09:28:33;99639.50;;;25.14;100.00
36380;BME280;22411;53.016;18.632;2023-07-24T09:31:00;99644.97;;;24.94;100.00
36380;BME280;22411;53.016;18.632;2023-07-24T09:36:03;99634.25;;;25.44;100.00
36380;BME280;22411;53.016;18.632;2023-07-24T09:38:30;99623.06;;;25.72;100.00
36380;BME280;22411;53.016;18.632;2023-07-24T09:40:56;99629.72;;;26.11;100.00
36380;BME280;22411;53.016;18.632;2023-07-24T09:43:24;99634.38;;;26.39;100.00
36380;BME280;22411;53.016;18.632;2023-07-24T09:45:51;99619.47;;;26.26;100.00
36380;BME280;22411;53.016;18.632;2023-07-24T09:48:19;99622.06;;;26.45;96.92
36380;BME280;22411;53.016;18.632;2023-07-24T09:50:48;99621.97;;;26.63;96.84
36380;BME280;22411;53.016;18.632;2023-07-24T09:53:19;99621.66;;;26.41;100.00
36380;BME280;22411;53.016;18.632;2023-07-24T09:55:51;99618.59;;;26.56;100.00
36380;BME280;22411;53.016;18.632;2023-07-24T09:58:18;99620.66;;;26.89;96.30
36380;BME280;22411;53.016;18.632;2023-07-24T10:00:46;99618.34;;;27.16;91.64
36380;BME280;22411;53.016;18.632;2023-07-24T10:03:14;99625.31;;;26.70;93.88
36380;BME280;22411;53.016;18.632;2023-07-24T10:05:43;99616.22;;;26.36;95.87
36380;BME280;22411;53.016;18.632;2023-07-24T10:08:14;99612.34;;;26.62;93.84
36380;BME280;22411;53.016;18.632;2023-07-24T10:10:41;99610.97;;;26.95;88.25
36380;BME280;22411;53.016;18.632;2023-07-24T10:13:08;99603.31;;;26.98;93.09
36380;BME280;22411;53.016;18.632;2023-07-24T10:15:37;99601.03;;;26.67;92.83
36380;BME280;22411;53.016;18.632;2023-07-24T10:18:05;99594.31;;;26.88;89.33
36380;BME280;22411;53.016;18.632;2023-07-24T10:20:36;99592.56;;;26.93;92.15
36380;BME280;22411;53.016;18.632;2023-07-24T10:23:02;99596.28;;;26.45;93.59
36380;BME280;22411;53.016;18.632;2023-07-24T10:25:32;99579.28;;;26.23;93.86
36380;BME280;22411;53.016;18.632;2023-07-24T10:28:02;99578.97;;;26.54;91.10
36380;BME280;22411;53.016;18.632;2023-07-24T10:30:32;99572.56;;;27.02;89.75
36380;BME280;22411;53.016;18.632;2023-07-24T10:33:19;99598.00;;;27.22;88.84
36380;BME280;22411;53.016;18.632;2023-07-24T10:36:04;99581.34;;;27.03;86.98
36380;BME280;22411;53.016;18.632;2023-07-24T10:38:35;99570.03;;;26.96;91.91
36380;BME280;22411;53.016;18.632;2023-07-24T10:41:05;99564.53;;;26.74;92.53
36380;BME280;22411;53.016;18.632;2023-07-24T10:43:47;99559.44;;;26.61;89.56
36380;BME280;22411;53.016;18.632;2023-07-24T10:46:15;99553.66;;;26.52;89.72
36380;BME280;22411;53.016;18.632;2023-07-24T10:48:45;99556.81;;;26.49;92.50
36380;BME280;22411;53.016;18.632;2023-07-24T10:51:12;99555.94;;;26.95;88.70
36380;BME280;22411;53.016;18.632;2023-07-24T10:53:47;99551.81;;;27.28;81.70
36380;BME280;22411;53.016;18.632;2023-07-24T10:56:13;99544.63;;;27.57;81.99
36380;BME280;22411;53.016;18.632;2023-07-24T10:58:39;99540.59;;;27.83;84.44
36380;BME280;22411;53.016;18.632;2023-07-24T11:01:06;99539.22;;;28.48;72.36
36380;BME280;22411;53.016;18.632;2023-07-24T11:03:32;99551.00;;;28.90;69.25
36380;BME280;22411;53.016;18.632;2023-07-24T11:06:02;99549.13;;;28.52;68.48
36380;BME280;22411;53.016;18.632;2023-07-24T11:08:27;99557.88;;;28.14;70.97
36380;BME280;22411;53.016;18.632;2023-07-24T11:10:55;99550.03;;;28.24;70.94
36380;BME280;22411;53.016;18.632;2023-07-24T11:13:23;99544.38;;;28.21;71.35
36380;BME280;22411;53.016;18.632;2023-07-24T11:15:49;99555.47;;;28.12;70.96
36380;BME280;22411;53.016;18.632;2023-07-24T11:18:16;99540.75;;;28.10;72.80
36380;BME280;22411;53.016;18.632;2023-07-24T11:23:11;99524.19;;;28.25;74.37
36380;BME280;22411;53.016;18.632;2023-07-24T11:25:37;99530.44;;;27.80;74.72
36380;BME280;22411;53.016;18.632;2023-07-24T11:28:07;99499.63;;;28.01;72.38
36380;BME280;22411;53.016;18.632;2023-07-24T11:30:33;99519.69;;;28.25;69.60
36380;BME280;22411;53.016;18.632;2023-07-24T11:33:08;99521.53;;;28.25;69.05
36380;BME280;22411;53.016;18.632;2023-07-24T11:35:35;99528.75;;;28.07;74.36
36380;BME280;22411;53.016;18.632;2023-07-24T11:38:01;99518.00;;;28.19;74.77
36380;BME280;22411;53.016;18.632;2023-07-24T11:40:35;99511.22;;;28.67;72.20
36380;BME280;22411;53.016;18.632;2023-07-24T11:43:02;99539.94;;;28.60;69.11
36380;BME280;22411;53.016;18.632;2023-07-24T11:45:29;99548.34;;;28.35;65.75
36380;BME280;22411;53.016;18.632;2023-07-24T11:47:56;99524.13;;;28.36;66.59
36380;BME280;22411;53.016;18.632;2023-07-24T11:50:23;99521.94;;;28.50;66.44
36380;BME280;22411;53.016;18.632;2023-07-24T11:52:52;99524.13;;;28.75;62.44
36380;BME280;22411;53.016;18.632;2023-07-24T11:55:29;99536.56;;;28.48;63.99
36380;BME280;22411;53.016;18.632;2023-07-24T11:58:00;99521.72;;;28.35;64.78
36380;BME280;22411;53.016;18.632;2023-07-24T12:00:27;99522.53;;;28.35;61.50
36380;BME280;22411;53.016;18.632;2023-07-24T12:02:59;99515.88;;;28.55;62.29
36380;BME280;22411;53.016;18.632;2023-07-24T12:05:25;99512.72;;;28.80;62.49
36380;BME280;22411;53.016;18.632;2023-07-24T12:07:54;99509.78;;;29.25;61.27
36380;BME280;22411;53.016;18.632;2023-07-24T12:10:27;99505.94;;;29.38;58.44
36380;BME280;22411;53.016;18.632;2023-07-24T12:12:57;99490.31;;;29.25;57.57
36380;BME280;22411;53.016;18.632;2023-07-24T12:15:24;99492.66;;;29.21;59.86
36380;BME280;22411;53.016;18.632;2023-07-24T12:17:49;99496.16;;;28.78;62.70
36380;BME280;22411;53.016;18.632;2023-07-24T12:20:15;99490.63;;;29.01;59.43
36380;BME280;22411;53.016;18.632;2023-07-24T12:22:41;99496.16;;;28.56;60.77
36380;BME280;22411;53.016;18.632;2023-07-24T12:25:07;99486.53;;;28.33;60.86
36380;BME280;22411;53.016;18.632;2023-07-24T12:27:33;99477.47;;;28.34;62.76
36380;BME280;22411;53.016;18.632;2023-07-24T12:29:59;99475.13;;;28.21;64.94
36380;BME280;22411;53.016;18.632;2023-07-24T12:32:25;99481.63;;;28.47;60.71
36380;BME280;22411;53.016;18.632;2023-07-24T12:34:52;99470.19;;;28.46;63.14
36380;BME280;22411;53.016;18.632;2023-07-24T12:37:18;99471.34;;;28.33;61.35
36380;BME280;22411;53.016;18.632;2023-07-24T12:39:45;99470.19;;;28.46;59.67
36380;BME280;22411;53.016;18.632;2023-07-24T12:42:11;99467.56;;;28.51;62.22
36380;BME280;22411;53.016;18.632;2023-07-24T12:44:37;99460.84;;;28.44;61.91
36380;BME280;22411;53.016;18.632;2023-07-24T12:47:04;99460.44;;;28.35;60.51
36380;BME280;22411;53.016;18.632;2023-07-24T12:49:30;99446.81;;;28.75;60.32